sensor_id;sensor_type;location;lat;lon;timestamp;P1;durP1;ratioP1;P2;durP2;ratioP2
20984;SDS011;10651;47.552;7.606;2024-03-17T08:21:32;21.30;;;8.00;;
20984;SDS011;10651;47.552;7.606;2024-03-17T09:26:07;13.55;;;7.88;;
20984;SDS011;10651;47.552;7.606;2024-03-17T13:09:51;7.07;;;2.70;;
20984;SDS011;10651;47.552;7.606;2024-03-17T13:17:29;4.97;;;1.98;;
20984;SDS011;10651;47.552;7.606;2024-03-17T16:56:04;8.70;;;3.08;;
20984;SDS011;10651;47.552;7.606;2024-03-17T19:07:01;7.38;;;3.25;;
20984;SDS011;10651;47.552;7.606;2024-03-17T19:16:17;7.40;;;3.95;;
20984;SDS011;10651;47.552;7.606;2024-03-17T19:18:43;10.38;;;3.78;;
20984;SDS011;10651;47.552;7.606;2024-03-17T19:23:39;13.23;;;4.72;;
20984;SDS011;10651;47.552;7.606;2024-03-17T19:26:15;9.07;;;4.13;;
20984;SDS011;10651;47.552;7.606;2024-03-17T19:28:49;8.48;;;4.10;;
20984;SDS011;10651;47.552;7.606;2024-03-17T19:31:16;7.53;;;4.10;;
20984;SDS011;10651;47.552;7.606;2024-03-17T19:33:41;10.60;;;4.22;;
20984;SDS011;10651;47.552;7.606;2024-03-17T19:36:08;7.72;;;4.20;;
20984;SDS011;10651;47.552;7.606;2024-03-17T19:38:37;8.10;;;3.67;;
20984;SDS011;10651;47.552;7.606;2024-03-17T19:41:12;13.45;;;4.53;;
20984;SDS011;10651;47.552;7.606;2024-03-17T19:43:38;7.93;;;4.55;;
20984;SDS011;10651;47.552;7.606;2024-03-17T19:46:09;8.50;;;4.40;;
20984;SDS011;10651;47.552;7.606;2024-03-17T19:48:43;8.85;;;4.35;;
20984;SDS011;10651;47.552;7.606;2024-03-17T19:51:11;10.00;;;4.75;;
20984;SDS011;10651;47.552;7.606;2024-03-17T19:53:38;9.88;;;4.32;;
20984;SDS011;10651;47.552;7.606;2024-03-17T19:56:04;6.70;;;4.40;;
20984;SDS011;10651;47.552;7.606;2024-03-17T19:58:32;8.95;;;4.05;;
20984;SDS011;10651;47.552;7.606;2024-03-17T20:01:02;9.32;;;4.25;;
20984;SDS011;10651;47.552;7.606;2024-03-17T20:03:28;8.73;;;4.80;;
20984;SDS011;10651;47.552;7.606;2024-03-17T20:05:58;12.98;;;4.93;;
20984;SDS011;10651;47.552;7.606;2024-03-17T20:08:24;12.38;;;5.05;;
20984;SDS011;10651;47.552;7.606;2024-03-17T20:10:52;9.50;;;4.80;;
20984;SDS011;10651;47.552;7.606;2024-03-17T20:13:22;11.10;;;4.38;;
20984;SDS011;10651;47.552;7.606;2024-03-17T20:15:52;13.35;;;4.57;;
20984;SDS011;10651;47.552;7.606;2024-03-17T20:18:18;13.85;;;5.13;;
20984;SDS011;10651;47.552;7.606;2024-03-17T20:20:44;7.63;;;4.57;;
20984;SDS011;10651;47.552;7.606;2024-03-17T20:23:11;9.07;;;4.35;;
20984;SDS011;10651;47.552;7.606;2024-03-17T20:25:37;8.43;;;4.53;;
20984;SDS011;10651;47.552;7.606;2024-03-17T20:28:04;10.30;;;4.22;;
20984;SDS011;10651;47.552;7.606;2024-03-17T20:30:30;10.48;;;4.53;;
20984;SDS011;10651;47.552;7.606;2024-03-17T20:32:56;15.07;;;4.25;;
20984;SDS011;10651;47.552;7.606;2024-03-17T20:35:22;9.88;;;4.20;;
20984;SDS011;10651;47.552;7.606;2024-03-17T20:45:43;11.48;;;5.20;;
20984;SDS011;10651;47.552;7.606;2024-03-17T20:56:15;8.45;;;4.10;;
20984;SDS011;10651;47.552;7.606;2024-03-17T21:06:37;8.55;;;4.15;;
20984;SDS011;10651;47.552;7.606;2024-03-17T21:09:03;11.13;;;4.72;;
20984;SDS011;10651;47.552;7.606;2024-03-17T21:11:30;8.70;;;4.15;;
20984;SDS011;10651;47.552;7.606;2024-03-17T21:13:56;9.65;;;4.75;;
20984;SDS011;10651;47.552;7.606;2024-03-17T21:16:22;15.70;;;4.75;;
20984;SDS011;10651;47.552;7.606;2024-03-17T21:18:49;11.02;;;4.72;;
20984;SDS011;10651;47.552;7.606;2024-03-17T21:21:15;7.28;;;4.10;;
20984;SDS011;10651;47.552;7.606;2024-03-17T21:23:41;12.07;;;4.82;;
20984;SDS011;10651;47.552;7.606;2024-03-17T21:26:08;9.13;;;4.63;;
20984;SDS011;10651;47.552;7.606;2024-03-17T21:29:07;9.63;;;4.85;;
20984;SDS011;10651;47.552;7.606;2024-03-17T21:31:37;9.68;;;4.68;;
20984;SDS011;10651;47.552;7.606;2024-03-17T21:34:03;7.53;;;4.95;;
20984;SDS011;10651;47.552;7.606;2024-03-17T21:36:29;8.65;;;4.55;;
20984;SDS011;10651;47.552;7.606;2024-03-17T21:38:54;9.93;;;5.03;;
20984;SDS011;10651;47.552;7.606;2024-03-17T21:41:20;9.52;;;4.78;;
20984;SDS011;10651;47.552;7.606;2024-03-17T21:43:49;8.52;;;4.70;;
20984;SDS011;10651;47.552;7.606;2024-03-17T21:46:19;12.80;;;4.70;;
20984;SDS011;10651;47.552;7.606;2024-03-17T21:48:47;10.43;;;5.00;;
20984;SDS011;10651;47.552;7.606;2024-03-17T21:51:16;10.18;;;5.05;;
20984;SDS011;10651;47.552;7.606;2024-03-17T21:53:54;11.73;;;4.75;;
20984;SDS011;10651;47.552;7.606;2024-03-17T21:57:01;10.35;;;4.85;;
20984;SDS011;10651;47.552;7.606;2024-03-17T22:02:28;9.73;;;4.68;;
20984;SDS011;10651;47.552;7.606;2024-03-17T22:04:54;14.15;;;4.70;;
20984;SDS011;10651;47.552;7.606;2024-03-17T22:07:23;8.57;;;5.00;;
20984;SDS011;10651;47.552;7.606;2024-03-17T22:10:01;10.43;;;4.57;;
20984;SDS011;10651;47.552;7.606;2024-03-17T22:12:32;10.32;;;4.97;;
20984;SDS011;10651;47.552;7.606;2024-03-17T22:15:06;9.35;;;4.82;;
20984;SDS011;10651;47.552;7.606;2024-03-17T22:18:08;12.10;;;5.75;;
20984;SDS011;10651;47.552;7.606;2024-03-17T22:20:34;11.07;;;5.57;;
20984;SDS011;10651;47.552;7.606;2024-03-17T22:23:00;9.25;;;5.50;;
20984;SDS011;10651;47.552;7.606;2024-03-17T22:25:29;12.32;;;5.80;;
20984;SDS011;10651;47.552;7.606;2024-03-17T22:31:44;11.88;;;6.28;;
20984;SDS011;10651;47.552;7.606;2024-03-17T22:34:13;15.20;;;5.90;;
20984;SDS011;10651;47.552;7.606;2024-03-17T22:36:38;18.13;;;7.13;;
20984;SDS011;10651;47.552;7.606;2024-03-17T22:39:05;17.38;;;6.90;;
20984;SDS011;10651;47.552;7.606;2024-03-17T22:41:34;15.48;;;6.68;;
20984;SDS011;10651;47.552;7.606;2024-03-17T22:44:00;14.70;;;6.68;;
20984;SDS011;10651;47.552;7.606;2024-03-17T22:46:26;12.93;;;6.43;;
20984;SDS011;10651;47.552;7.606;2024-03-17T22:48:52;10.65;;;6.70;;
20984;SDS011;10651;47.552;7.606;2024-03-17T22:51:18;15.82;;;6.90;;
20984;SDS011;10651;47.552;7.606;2024-03-17T22:53:44;12.73;;;7.15;;
20984;SDS011;10651;47.552;7.606;2024-03-17T22:56:10;11.45;;;6.93;;
20984;SDS011;10651;47.552;7.606;2024-03-17T22:58:37;15.85;;;7.47;;
20984;SDS011;10651;47.552;7.606;2024-03-17T23:01:07;13.85;;;6.95;;
20984;SDS011;10651;47.552;7.606;2024-03-17T23:03:56;12.23;;;6.93;;
20984;SDS011;10651;47.552;7.606;2024-03-17T23:06:34;21.85;;;8.02;;
20984;SDS011;10651;47.552;7.606;2024-03-17T23:09:06;16.48;;;7.85;;
20984;SDS011;10651;47.552;7.606;2024-03-17T23:11:32;12.73;;;6.95;;
20984;SDS011;10651;47.552;7.606;2024-03-17T23:13:59;19.65;;;8.43;;
20984;SDS011;10651;47.552;7.606;2024-03-17T23:16:34;12.85;;;6.68;;
20984;SDS011;10651;47.552;7.606;2024-03-17T23:19:00;17.95;;;7.03;;
